createdAt,value
2022-09-20T00:00:15.218Z,43.17
2022-09-20T00:02:48.291Z,41.13
2022-09-20T00:05:21.268Z,51.23
2022-09-20T00:07:54.420Z,49.90
2022-09-20T00:10:27.714Z,42.03
2022-09-20T00:13:00.636Z,45.70
2022-09-20T00:15:34.150Z,41.90
2022-09-20T00:18:07.650Z,34.05
2022-09-20T00:20:51.723Z,38.50
2022-09-20T00:23:24.661Z,30.77
2022-09-20T00:25:59.746Z,34.55
2022-09-20T00:28:34.982Z,26.02
2022-09-20T00:31:08.359Z,30.97
2022-09-20T00:34:00.080Z,31.73
2022-09-20T00:36:33.060Z,29.65
2022-09-20T00:39:06.500Z,27.30
2022-09-20T00:41:40.105Z,27.97
2022-09-20T00:44:52.822Z,25.15
2022-09-20T00:47:45.330Z,32.20
2022-09-20T00:50:47.264Z,28.65
2022-09-20T00:53:30.717Z,28.05
2022-09-20T00:56:26.564Z,32.03
2022-09-20T00:59:19.572Z,39.42
2022-09-20T01:01:56.138Z,28.85
2022-09-20T01:04:30.389Z,24.55
2022-09-20T01:07:05.434Z,29.18
2022-09-20T01:09:39.293Z,25.02
2022-09-20T01:12:17.161Z,23.18
2022-09-20T01:14:52.452Z,30.85
2022-09-20T01:17:27.827Z,27.30
2022-09-20T01:20:06.204Z,26.02
2022-09-20T01:23:17.239Z,25.68
2022-09-20T01:26:32.877Z,32.05
2022-09-20T01:29:16.034Z,28.10
2022-09-20T01:31:53.582Z,31.25
2022-09-20T01:34:38.259Z,36.08
2022-09-20T01:40:14.267Z,30.68
2022-09-20T01:42:52.817Z,30.08
2022-09-20T01:45:29.670Z,29.35
2022-09-20T01:48:15.429Z,29.27
2022-09-20T01:51:02.847Z,29.95
2022-09-20T01:54:05.498Z,33.70
2022-09-20T01:57:11.513Z,27.17
2022-09-20T02:00:16.457Z,31.60
2022-09-20T02:03:27.997Z,31.23
2022-09-20T02:06:28.697Z,26.80
2022-09-20T02:09:41.346Z,32.33
2022-09-20T02:12:54.904Z,26.25
2022-09-20T02:15:51.814Z,26.80
2022-09-20T02:19:18.859Z,27.20
2022-09-20T02:22:32.121Z,21.42
2022-09-20T02:25:26.144Z,24.90
2022-09-20T02:28:15.686Z,23.30
2022-09-20T02:31:33.568Z,28.45
2022-09-20T02:34:33.035Z,24.27
2022-09-20T02:37:38.841Z,22.10
2022-09-20T02:40:28.627Z,21.12
2022-09-20T02:43:27.273Z,21.02
2022-09-20T02:46:23.441Z,27.73
2022-09-20T02:49:25.100Z,23.65
2022-09-20T02:52:11.121Z,24.10
2022-09-20T02:55:04.735Z,24.30
2022-09-20T02:57:53.605Z,20.95
2022-09-20T03:00:42.809Z,25.57
2022-09-20T03:03:41.245Z,26.68
2022-09-20T03:06:58.188Z,25.72
2022-09-20T03:09:38.607Z,25.30
2022-09-20T03:12:40.050Z,23.10
2022-09-20T03:15:51.191Z,21.97
2022-09-20T03:18:46.616Z,21.68
2022-09-20T03:21:32.759Z,24.02
2022-09-20T03:24:22.891Z,25.23
2022-09-20T03:27:06.331Z,23.02
2022-09-20T03:30:20.471Z,19.12
2022-09-20T03:33:34.340Z,19.27
2022-09-20T03:36:32.789Z,21.93
2022-09-20T03:39:34.879Z,22.37
2022-09-20T03:42:16.717Z,21.65
2022-09-20T03:45:40.998Z,21.70
2022-09-20T03:48:51.956Z,21.45
2022-09-20T03:51:47.157Z,25.40
2022-09-20T03:54:40.146Z,19.30
2022-09-20T03:57:32.478Z,21.62
2022-09-20T04:00:38.926Z,26.52
2022-09-20T04:03:45.894Z,30.25
2022-09-20T04:06:23.716Z,21.05
2022-09-20T04:09:38.862Z,22.13
2022-09-20T04:13:01.698Z,18.75
2022-09-20T04:15:42.978Z,22.37
2022-09-20T04:18:48.179Z,23.07
2022-09-20T04:21:35.105Z,18.82
2022-09-20T04:24:32.271Z,21.33
2022-09-20T04:27:30.293Z,21.62
2022-09-20T04:30:10.193Z,24.32
2022-09-20T04:32:56.381Z,24.30
2022-09-20T04:36:21.976Z,22.15
2022-09-20T04:39:14.564Z,22.32
2022-09-20T04:42:27.040Z,24.65
2022-09-20T04:45:10.753Z,25.52
2022-09-20T04:48:13.770Z,29.37
2022-09-20T04:51:19.194Z,31.20
2022-09-20T04:54:22.139Z,25.15
2022-09-20T04:57:23.590Z,26.97
2022-09-20T05:00:12.446Z,36.13
2022-09-20T05:03:17.615Z,24.55
2022-09-20T05:06:15.044Z,31.17
2022-09-20T05:09:19.261Z,46.25
2022-09-20T05:12:27.655Z,39.53
2022-09-20T05:15:27.019Z,30.08
2022-09-20T05:18:31.207Z,47.83
2022-09-20T05:21:11.266Z,65.40
2022-09-20T05:24:18.783Z,54.30
2022-09-20T05:27:38.938Z,43.13
2022-09-20T05:30:33.958Z,43.70
2022-09-20T05:33:36.975Z,39.67
2022-09-20T05:36:34.588Z,36.88
2022-09-20T05:40:06.205Z,41.35
2022-09-20T05:42:55.197Z,68.47
2022-09-20T05:46:00.881Z,36.15
2022-09-20T05:49:10.098Z,22.02
2022-09-20T05:52:09.541Z,19.52
2022-09-20T05:55:07.278Z,18.35
2022-09-20T05:58:22.149Z,11.43
2022-09-20T06:01:05.477Z,18.40
2022-09-20T06:03:54.400Z,11.25
2022-09-20T06:06:47.306Z,11.00
2022-09-20T06:09:49.026Z,16.45
2022-09-20T06:12:41.596Z,11.33
2022-09-20T06:15:37.282Z,12.07
2022-09-20T06:18:32.384Z,19.65
2022-09-20T06:21:28.056Z,15.88
2022-09-20T06:24:03.394Z,14.73
2022-09-20T06:26:38.291Z,15.32
2022-09-20T06:29:13.408Z,11.78
2022-09-20T06:31:46.403Z,6.47
2022-09-20T06:34:19.514Z,8.23
2022-09-20T06:37:27.181Z,8.67
2022-09-20T06:40:39.757Z,5.60
2022-09-20T06:43:14.233Z,11.05
2022-09-20T06:45:48.777Z,8.28
2022-09-20T06:48:21.740Z,7.83
2022-09-20T06:50:56.517Z,7.33
2022-09-20T06:53:33.217Z,10.08
2022-09-20T06:56:06.403Z,9.48
2022-09-20T07:01:14.059Z,6.83
2022-09-20T07:03:47.722Z,10.60
2022-09-20T07:06:21.364Z,7.20
2022-09-20T07:08:54.645Z,11.48
2022-09-20T07:11:28.070Z,5.00
2022-09-20T07:14:02.388Z,5.65
2022-09-20T07:16:36.596Z,9.53
2022-09-20T07:19:09.422Z,10.38
2022-09-20T07:21:42.225Z,10.45
2022-09-20T07:24:15.468Z,4.85
2022-09-20T07:27:01.218Z,4.78
2022-09-20T07:29:35.605Z,6.40
2022-09-20T07:32:08.809Z,4.83
2022-09-20T07:34:42.083Z,7.00
2022-09-20T07:37:15.267Z,5.80
2022-09-20T07:39:48.529Z,7.12
2022-09-20T07:42:21.190Z,5.25
2022-09-20T07:44:56.128Z,7.55
2022-09-20T07:47:31.864Z,10.50
2022-09-20T07:50:05.989Z,6.78
2022-09-20T07:52:38.621Z,9.88
2022-09-20T07:55:11.636Z,5.90
2022-09-20T07:57:45.855Z,3.90
2022-09-20T08:03:01.051Z,2.37
2022-09-20T08:05:35.994Z,12.82
2022-09-20T08:08:09.240Z,6.50
2022-09-20T08:10:42.109Z,6.67
2022-09-20T08:15:51.523Z,5.65
2022-09-20T08:18:26.106Z,4.37
2022-09-20T08:21:00.838Z,6.92
2022-09-20T08:23:38.897Z,4.45
2022-09-20T08:26:14.518Z,6.95
2022-09-20T08:28:50.262Z,4.60
2022-09-20T08:31:28.438Z,7.35
2022-09-20T08:34:03.004Z,2.58
2022-09-20T08:36:37.565Z,6.25
2022-09-20T08:42:01.444Z,4.03
2022-09-20T08:44:45.188Z,3.58
2022-09-20T08:47:32.689Z,8.48
2022-09-20T08:50:09.520Z,4.75
2022-09-20T08:52:45.966Z,4.60
2022-09-20T08:55:23.540Z,7.87
2022-09-20T08:57:59.838Z,9.03
2022-09-20T09:00:37.595Z,7.60
2022-09-20T09:03:18.621Z,12.15
2022-09-20T09:05:58.568Z,10.93
2022-09-20T09:08:38.295Z,3.65
2022-09-20T09:11:20.153Z,4.58
2022-09-20T09:14:13.143Z,5.28
2022-09-20T09:16:46.120Z,2.85
2022-09-20T09:19:34.679Z,4.85
2022-09-20T09:22:08.672Z,4.58
2022-09-20T09:24:42.552Z,1.87
2022-09-20T09:27:19.583Z,5.47
2022-09-20T09:29:55.972Z,2.12
2022-09-20T09:32:35.463Z,2.35
2022-09-20T09:35:24.491Z,3.77
2022-09-20T09:38:03.205Z,1.80
2022-09-20T09:40:36.400Z,1.72
2022-09-20T09:43:14.275Z,2.70
2022-09-20T09:45:47.176Z,4.25
2022-09-20T09:48:31.896Z,2.12
2022-09-20T09:51:23.987Z,4.40
2022-09-20T09:53:58.221Z,7.50
2022-09-20T09:56:45.114Z,4.00
2022-09-20T09:59:50.167Z,3.20
2022-09-20T10:02:48.905Z,3.05
2022-09-20T10:05:34.700Z,4.17
2022-09-20T10:08:15.738Z,3.90
2022-09-20T10:11:01.040Z,6.03
2022-09-20T10:17:09.470Z,4.65
2022-09-20T10:20:05.487Z,3.87
2022-09-20T10:23:45.026Z,4.85
2022-09-20T10:26:26.370Z,6.30
2022-09-20T10:29:38.626Z,3.02
2022-09-20T10:32:31.840Z,7.95
2022-09-20T10:35:24.716Z,3.05
2022-09-20T10:38:23.489Z,7.62
2022-09-20T10:41:54.014Z,8.48
2022-09-20T10:44:40.407Z,5.25
2022-09-20T10:47:20.631Z,4.12
2022-09-20T10:50:10.926Z,5.00
2022-09-20T10:52:57.581Z,8.45
2022-09-20T10:55:52.839Z,5.30
2022-09-20T10:59:07.016Z,4.75
2022-09-20T11:02:24.011Z,6.12
2022-09-20T11:05:30.629Z,13.25
2022-09-20T11:08:18.427Z,7.28
2022-09-20T11:11:04.978Z,5.42
2022-09-20T11:13:54.106Z,6.28
2022-09-20T11:17:02.003Z,6.08
2022-09-20T11:20:06.919Z,5.20
2022-09-20T11:22:55.034Z,3.50
2022-09-20T11:25:55.090Z,4.83
2022-09-20T11:28:37.862Z,2.80
2022-09-20T11:31:32.520Z,2.33
2022-09-20T11:34:31.472Z,2.55
2022-09-20T11:37:04.954Z,3.60
2022-09-20T11:39:55.996Z,5.70
2022-09-20T11:42:32.166Z,1.92
2022-09-20T11:45:07.073Z,3.15
2022-09-20T11:47:55.871Z,3.87
2022-09-20T11:50:54.631Z,4.30
2022-09-20T11:53:56.137Z,4.65
2022-09-20T11:56:31.290Z,2.62
2022-09-20T11:59:11.888Z,3.95
2022-09-20T12:01:46.536Z,9.15
2022-09-20T12:04:33.712Z,10.85
2022-09-20T12:07:23.111Z,7.70
2022-09-20T12:10:03.765Z,7.03
2022-09-20T12:12:45.714Z,4.22
2022-09-20T12:15:32.130Z,3.60
2022-09-20T12:18:13.698Z,3.45
2022-09-20T12:21:15.359Z,1.60
2022-09-20T12:24:00.964Z,3.58
2022-09-20T12:26:42.920Z,4.00
2022-09-20T12:29:34.280Z,29.77
2022-09-20T12:32:11.818Z,25.40
2022-09-20T12:34:45.050Z,37.33
2022-09-20T12:37:25.231Z,16.57
2022-09-20T12:39:58.717Z,14.85
2022-09-20T12:42:33.943Z,15.57
2022-09-20T12:45:18.304Z,9.03
2022-09-20T12:47:57.246Z,29.55
2022-09-20T12:50:48.118Z,17.42
2022-09-20T12:53:22.175Z,6.30
2022-09-20T12:56:09.585Z,6.17
2022-09-20T12:58:53.871Z,5.42
2022-09-20T13:01:30.920Z,4.85
2022-09-20T13:04:55.707Z,3.65
2022-09-20T13:07:43.859Z,5.53
2022-09-20T13:10:27.328Z,4.28
2022-09-20T13:13:16.416Z,6.53
2022-09-20T13:15:53.859Z,4.97
2022-09-20T13:18:28.055Z,5.70
2022-09-20T13:21:02.651Z,7.40
2022-09-20T13:23:46.284Z,6.42
2022-09-20T13:26:24.316Z,17.20
2022-09-20T13:28:59.402Z,28.30
2022-09-20T13:31:35.977Z,27.67
2022-09-20T13:34:17.669Z,43.17
2022-09-20T13:36:58.484Z,47.73
2022-09-20T13:39:38.700Z,84.60
2022-09-20T13:42:16.626Z,70.22
2022-09-20T13:44:50.832Z,37.75
2022-09-20T13:47:28.839Z,22.30
2022-09-20T13:50:04.334Z,13.13
2022-09-20T13:52:42.388Z,10.58
2022-09-20T13:55:31.181Z,14.25
2022-09-20T13:58:10.906Z,8.93
2022-09-20T14:00:56.734Z,5.15
2022-09-20T14:03:33.511Z,4.75
2022-09-20T14:06:16.373Z,4.12
2022-09-20T14:08:53.537Z,4.70
2022-09-20T14:11:34.696Z,5.65
2022-09-20T14:14:08.412Z,3.55
2022-09-20T14:16:46.581Z,4.78
2022-09-20T14:19:22.551Z,4.80
2022-09-20T14:21:55.325Z,8.70
2022-09-20T14:24:35.856Z,2.22
2022-09-20T14:27:23.134Z,5.33
2022-09-20T14:29:56.982Z,4.65
2022-09-20T14:32:50.042Z,2.70
2022-09-20T14:35:24.343Z,5.08
2022-09-20T14:40:44.207Z,6.25
2022-09-20T14:43:35.172Z,5.97
2022-09-20T14:46:15.292Z,6.53
2022-09-20T14:48:48.378Z,4.20
2022-09-20T14:51:25.652Z,5.67
2022-09-20T14:54:11.903Z,7.37
2022-09-20T14:56:57.153Z,3.92
2022-09-20T14:59:44.224Z,4.53
2022-09-20T15:02:17.994Z,3.10
2022-09-20T15:05:00.228Z,5.97
2022-09-20T15:07:33.538Z,7.67
2022-09-20T15:10:10.010Z,6.40
2022-09-20T15:12:43.763Z,7.25
2022-09-20T15:15:19.260Z,8.90
2022-09-20T15:17:52.285Z,8.73
2022-09-20T15:20:25.394Z,11.28
2022-09-20T15:22:58.913Z,8.75
2022-09-20T15:25:31.647Z,8.43
2022-09-20T15:28:04.909Z,9.23
2022-09-20T15:30:38.582Z,8.43
2022-09-20T15:33:12.828Z,7.83
2022-09-20T15:35:47.078Z,14.50
2022-09-20T15:38:23.010Z,18.37
2022-09-20T15:40:56.763Z,9.30
2022-09-20T15:43:31.463Z,9.65
2022-09-20T15:46:23.119Z,6.10
2022-09-20T15:48:59.859Z,8.68
2022-09-20T15:51:33.759Z,11.73
2022-09-20T15:54:09.772Z,5.87
2022-09-20T15:56:43.068Z,7.47
2022-09-20T15:59:16.862Z,9.25
2022-09-20T16:01:50.280Z,6.83
2022-09-20T16:04:24.771Z,4.37
2022-09-20T16:06:58.256Z,10.43
2022-09-20T16:09:36.567Z,10.80
2022-09-20T16:12:11.405Z,10.75
2022-09-20T16:14:45.947Z,10.48
2022-09-20T16:17:22.064Z,5.30
2022-09-20T16:19:55.826Z,6.67
2022-09-20T16:22:30.301Z,15.75
2022-09-20T16:25:04.901Z,9.83
2022-09-20T16:27:38.520Z,8.58
2022-09-20T16:30:12.732Z,7.10
2022-09-20T16:35:18.820Z,13.03
2022-09-20T16:37:52.464Z,13.73
2022-09-20T16:40:26.316Z,10.50
2022-09-20T16:43:00.148Z,7.90
2022-09-20T16:45:35.474Z,9.05
2022-09-20T16:48:09.179Z,7.17
2022-09-20T16:50:43.189Z,3.10
2022-09-20T16:53:17.204Z,7.08
2022-09-20T16:55:50.900Z,6.17
2022-09-20T16:58:31.988Z,5.97
2022-09-20T17:01:07.763Z,10.95
2022-09-20T17:03:45.045Z,8.53
2022-09-20T17:06:20.251Z,5.92
2022-09-20T17:08:59.288Z,7.37
2022-09-20T17:11:36.886Z,5.72
2022-09-20T17:14:11.605Z,9.25
2022-09-20T17:16:47.659Z,16.40
2022-09-20T17:19:23.415Z,12.58
2022-09-20T17:21:57.021Z,5.87
2022-09-20T17:24:32.154Z,12.63
2022-09-20T17:27:07.866Z,6.25
2022-09-20T17:29:42.727Z,6.05
2022-09-20T17:32:16.440Z,8.85
2022-09-20T17:34:50.072Z,12.85
2022-09-20T17:37:23.133Z,24.77
2022-09-20T17:39:58.185Z,11.95
2022-09-20T17:42:32.221Z,11.05
2022-09-20T17:45:06.357Z,8.93
2022-09-20T17:50:15.061Z,11.70
2022-09-20T17:52:48.049Z,8.78
2022-09-20T17:55:21.006Z,9.85
2022-09-20T17:57:55.014Z,10.43
2022-09-20T18:00:27.913Z,7.87
2022-09-20T18:03:04.746Z,6.85
2022-09-20T18:05:35.569Z,9.98
2022-09-20T18:08:08.617Z,13.60
2022-09-20T18:10:42.208Z,13.08
2022-09-20T18:13:15.250Z,10.63
2022-09-20T18:15:49.491Z,10.70
2022-09-20T18:18:24.025Z,13.53
2022-09-20T18:20:56.849Z,11.33
2022-09-20T18:23:30.423Z,9.08
2022-09-20T18:26:25.399Z,10.50
2022-09-20T18:29:07.430Z,26.70
2022-09-20T18:31:54.004Z,33.48
2022-09-20T18:34:32.927Z,45.60
2022-09-20T18:37:11.227Z,42.38
2022-09-20T18:39:44.029Z,45.17
2022-09-20T18:42:17.951Z,46.85
2022-09-20T18:44:51.020Z,51.20
2022-09-20T18:47:25.021Z,45.40
2022-09-20T18:49:58.520Z,48.38
2022-09-20T18:52:32.661Z,38.90
2022-09-20T18:55:08.028Z,29.70
2022-09-20T18:57:41.313Z,31.75
2022-09-20T19:00:15.542Z,34.23
2022-09-20T19:03:09.488Z,20.92
2022-09-20T19:05:48.730Z,17.17
2022-09-20T19:08:35.834Z,13.95
2022-09-20T19:11:16.581Z,12.40
2022-09-20T19:14:06.337Z,11.63
2022-09-20T19:16:40.061Z,17.23
2022-09-20T19:19:34.100Z,13.58
2022-09-20T19:22:11.627Z,18.10
2022-09-20T19:25:03.801Z,16.62
2022-09-20T19:27:37.778Z,15.03
2022-09-20T19:30:14.595Z,11.08
2022-09-20T19:32:48.659Z,10.55
2022-09-20T19:35:28.879Z,11.18
2022-09-20T19:38:25.793Z,10.72
2022-09-20T19:41:24.353Z,8.85
2022-09-20T19:44:02.055Z,10.63
2022-09-20T19:47:20.324Z,6.53
2022-09-20T19:50:06.421Z,6.28
2022-09-20T19:52:40.358Z,9.48
2022-09-20T19:55:15.969Z,8.43
2022-09-20T19:57:50.042Z,7.83
2022-09-20T20:00:24.348Z,12.15
2022-09-20T20:02:58.142Z,10.03
2022-09-20T20:05:31.962Z,5.85
2022-09-20T20:11:15.707Z,5.55
2022-09-20T20:14:16.726Z,8.50
2022-09-20T20:17:03.052Z,13.18
2022-09-20T20:20:01.805Z,8.83
2022-09-20T20:22:55.995Z,6.35
2022-09-20T20:25:39.538Z,6.30
2022-09-20T20:28:12.282Z,7.75
2022-09-20T20:30:45.396Z,8.20
2022-09-20T20:33:20.510Z,9.23
2022-09-20T20:35:59.970Z,7.85
2022-09-20T20:38:34.520Z,7.95
2022-09-20T20:41:13.998Z,9.75
2022-09-20T20:43:48.201Z,8.95
2022-09-20T20:48:53.199Z,9.80
2022-09-20T20:51:27.595Z,10.23
2022-09-20T20:56:33.006Z,11.05
2022-09-20T20:59:06.725Z,7.35
2022-09-20T21:01:46.096Z,9.60
2022-09-20T21:04:21.089Z,9.98
2022-09-20T21:06:54.225Z,7.42
2022-09-20T21:09:27.164Z,9.90
2022-09-20T21:11:59.890Z,9.58
2022-09-20T21:14:34.976Z,6.97
2022-09-20T21:17:08.661Z,10.08
2022-09-20T21:19:41.600Z,8.97
2022-09-20T21:22:14.275Z,8.33
2022-09-20T21:24:47.422Z,7.25
2022-09-20T21:27:21.078Z,12.63
2022-09-20T21:29:55.336Z,10.48
2022-09-20T21:32:28.191Z,13.22
2022-09-20T21:35:01.517Z,15.95
2022-09-20T21:37:34.378Z,10.40
2022-09-20T21:40:08.365Z,9.53
2022-09-20T21:42:41.320Z,10.75
2022-09-20T21:45:14.337Z,10.08
2022-09-20T21:47:50.427Z,8.05
2022-09-20T21:50:23.206Z,9.80
2022-09-20T21:52:56.101Z,12.33
2022-09-20T21:55:28.923Z,8.63
2022-09-20T21:58:01.868Z,11.12
2022-09-20T22:00:35.966Z,12.05
2022-09-20T22:03:08.570Z,13.65
2022-09-20T22:05:41.391Z,7.85
2022-09-20T22:08:14.842Z,10.80
2022-09-20T22:10:58.932Z,8.08
2022-09-20T22:13:32.388Z,9.70
2022-09-20T22:16:14.398Z,10.47
2022-09-20T22:18:48.158Z,11.10
2022-09-20T22:21:24.152Z,11.35
2022-09-20T22:24:02.934Z,11.78
2022-09-20T22:26:39.355Z,11.80
2022-09-20T22:29:12.455Z,13.38
2022-09-20T22:31:47.761Z,14.85
2022-09-20T22:34:23.732Z,11.57
2022-09-20T22:36:56.404Z,11.63
2022-09-20T22:39:29.406Z,15.03
2022-09-20T22:42:02.455Z,11.73
2022-09-20T22:44:36.265Z,10.78
2022-09-20T22:47:09.138Z,13.05
2022-09-20T22:49:42.430Z,17.33
2022-09-20T22:52:15.554Z,20.35
2022-09-20T22:54:48.256Z,23.30
2022-09-20T22:57:20.958Z,17.10
2022-09-20T22:59:53.809Z,15.38
2022-09-20T23:02:26.610Z,19.30
2022-09-20T23:04:59.721Z,15.00
2022-09-20T23:07:32.715Z,18.80
2022-09-20T23:10:07.497Z,15.98
2022-09-20T23:12:41.482Z,17.57
2022-09-20T23:15:14.257Z,18.10
2022-09-20T23:17:47.270Z,13.08
2022-09-20T23:20:19.975Z,13.98
2022-09-20T23:22:52.778Z,18.32
2022-09-20T23:25:25.573Z,18.62
2022-09-20T23:27:58.498Z,16.97
2022-09-20T23:30:32.229Z,16.67
2022-09-20T23:33:05.434Z,15.45
2022-09-20T23:35:44.792Z,10.88
2022-09-20T23:38:17.413Z,12.18
2022-09-20T23:40:50.701Z,15.45
2022-09-20T23:43:23.386Z,10.93
2022-09-20T23:45:56.144Z,14.38
2022-09-20T23:48:29.196Z,12.07
2022-09-20T23:51:02.379Z,14.95
2022-09-20T23:53:36.202Z,10.53
2022-09-20T23:56:09.797Z,13.08
2022-09-20T23:58:45.279Z,13.48
